createdAt,value
2022-11-30T00:01:25.190Z,118.60
2022-11-30T00:03:56.218Z,127.53
2022-11-30T00:06:23.755Z,132.57
2022-11-30T00:08:54.077Z,132.85
2022-11-30T00:11:21.829Z,123.68
2022-11-30T00:13:49.346Z,144.55
2022-11-30T00:16:16.567Z,144.60
2022-11-30T00:18:43.300Z,150.68
2022-11-30T00:21:13.423Z,141.10
2022-11-30T00:23:43.190Z,143.57
2022-11-30T00:26:13.051Z,140.93
2022-11-30T00:28:40.284Z,141.63
2022-11-30T00:31:10.335Z,136.02
2022-11-30T00:33:38.250Z,146.27
2022-11-30T00:36:13.570Z,139.52
2022-11-30T00:38:40.370Z,132.05
2022-11-30T00:41:07.189Z,129.48
2022-11-30T00:43:33.958Z,131.93
2022-11-30T00:46:00.848Z,136.95
2022-11-30T00:48:27.813Z,155.30
2022-11-30T00:50:54.476Z,133.63
2022-11-30T00:53:21.760Z,142.73
2022-11-30T00:55:48.924Z,122.80
2022-11-30T00:58:15.747Z,134.30
2022-11-30T01:00:43.064Z,146.35
2022-11-30T01:03:10.154Z,132.77
2022-11-30T01:05:37.078Z,137.93
2022-11-30T01:08:06.369Z,149.52
2022-11-30T01:10:38.885Z,141.00
2022-11-30T01:13:06.401Z,143.70
2022-11-30T01:15:40.634Z,142.13
2022-11-30T01:18:07.916Z,144.93
2022-11-30T01:20:35.003Z,160.27
2022-11-30T01:23:01.676Z,154.20
2022-11-30T01:25:28.375Z,134.50
2022-11-30T01:27:54.978Z,137.02
2022-11-30T01:30:21.649Z,134.38
2022-11-30T01:32:48.265Z,158.15
2022-11-30T01:35:14.895Z,140.00
2022-11-30T01:37:41.539Z,134.15
2022-11-30T01:40:08.811Z,131.93
2022-11-30T01:42:37.801Z,133.00
2022-11-30T01:45:05.832Z,137.88
2022-11-30T01:47:43.149Z,124.53
2022-11-30T01:50:13.850Z,125.93
2022-11-30T01:52:46.564Z,131.35
2022-11-30T01:55:23.821Z,128.32
2022-11-30T01:58:00.842Z,152.77
2022-11-30T02:00:27.626Z,129.90
2022-11-30T02:03:07.915Z,134.65
2022-11-30T02:05:39.753Z,126.65
2022-11-30T02:10:37.483Z,129.88
2022-11-30T02:13:23.173Z,135.63
2022-11-30T02:16:04.075Z,135.07
2022-11-30T02:18:54.018Z,128.68
2022-11-30T02:21:52.679Z,136.07
2022-11-30T02:24:35.262Z,129.20
2022-11-30T02:27:41.034Z,131.55
2022-11-30T02:30:20.405Z,133.27
2022-11-30T02:32:56.165Z,135.32
2022-11-30T02:35:29.775Z,115.32
2022-11-30T02:37:57.914Z,121.80
2022-11-30T02:40:24.585Z,116.18
2022-11-30T02:42:53.215Z,120.65
2022-11-30T02:45:33.201Z,114.97
2022-11-30T02:48:07.687Z,86.35
2022-11-30T02:50:40.306Z,88.80
2022-11-30T02:53:09.110Z,85.00
2022-11-30T02:55:36.288Z,81.60
2022-11-30T02:58:03.324Z,84.78
2022-11-30T03:00:30.017Z,74.88
2022-11-30T03:02:56.733Z,81.88
2022-11-30T03:05:23.703Z,71.10
2022-11-30T03:07:50.590Z,66.00
2022-11-30T03:10:17.321Z,67.72
2022-11-30T03:12:43.950Z,67.75
2022-11-30T03:15:11.048Z,67.40
2022-11-30T03:17:37.803Z,66.65
2022-11-30T03:20:05.193Z,60.38
2022-11-30T03:22:31.831Z,66.03
2022-11-30T03:24:58.493Z,62.58
2022-11-30T03:27:25.158Z,62.78
2022-11-30T03:29:51.825Z,61.40
2022-11-30T03:32:19.216Z,57.97
2022-11-30T03:34:46.182Z,60.58
2022-11-30T03:37:13.196Z,59.45
2022-11-30T03:39:39.828Z,65.28
2022-11-30T03:42:06.626Z,61.42
2022-11-30T03:44:33.230Z,57.85
2022-11-30T03:46:59.889Z,59.05
2022-11-30T03:49:26.512Z,55.50
2022-11-30T03:51:53.120Z,56.17
2022-11-30T03:54:19.851Z,63.28
2022-11-30T03:56:46.455Z,56.08
2022-11-30T03:59:13.168Z,56.40
2022-11-30T04:01:41.354Z,63.60
2022-11-30T04:04:08.180Z,57.10
2022-11-30T04:06:34.824Z,53.40
2022-11-30T04:09:01.572Z,56.00
2022-11-30T04:11:28.200Z,57.30
2022-11-30T04:13:54.822Z,57.30
2022-11-30T04:16:21.557Z,56.95
2022-11-30T04:18:48.554Z,56.97
2022-11-30T04:21:15.202Z,60.15
2022-11-30T04:23:41.988Z,56.67
2022-11-30T04:26:12.788Z,54.88
2022-11-30T04:28:39.779Z,55.27
2022-11-30T04:31:06.791Z,64.38
2022-11-30T04:33:33.548Z,60.13
2022-11-30T04:36:03.027Z,58.63
2022-11-30T04:38:30.115Z,63.42
2022-11-30T04:40:57.123Z,61.20
2022-11-30T04:43:24.754Z,59.45
2022-11-30T04:45:51.418Z,63.10
2022-11-30T04:48:19.434Z,59.90
2022-11-30T04:50:46.196Z,59.53
2022-11-30T04:53:12.823Z,58.80
2022-11-30T04:55:41.635Z,65.07
2022-11-30T04:58:08.357Z,81.85
2022-11-30T05:00:35.662Z,61.58
2022-11-30T05:03:02.600Z,57.35
2022-11-30T05:05:29.220Z,59.45
2022-11-30T05:07:57.451Z,56.30
2022-11-30T05:10:24.827Z,61.25
2022-11-30T05:12:51.926Z,62.15
2022-11-30T05:15:19.382Z,63.78
2022-11-30T05:17:46.011Z,62.20
2022-11-30T05:20:12.712Z,60.40
2022-11-30T05:22:39.345Z,60.97
2022-11-30T05:25:06.529Z,62.17
2022-11-30T05:27:33.233Z,62.55
2022-11-30T05:29:59.925Z,72.32
2022-11-30T05:32:26.750Z,68.68
2022-11-30T05:34:53.996Z,70.57
2022-11-30T05:37:20.905Z,65.32
2022-11-30T05:39:47.574Z,68.38
2022-11-30T05:42:14.195Z,67.32
2022-11-30T05:44:40.908Z,69.85
2022-11-30T05:47:07.620Z,64.90
2022-11-30T05:49:34.296Z,63.30
2022-11-30T05:52:00.910Z,59.42
2022-11-30T05:54:27.524Z,57.08
2022-11-30T05:56:55.311Z,54.95
2022-11-30T05:59:22.998Z,51.80
2022-11-30T06:01:52.512Z,61.33
2022-11-30T06:04:19.752Z,52.40
2022-11-30T06:06:46.691Z,57.17
2022-11-30T06:09:13.372Z,60.15
2022-11-30T06:11:40.018Z,50.30
2022-11-30T06:14:06.768Z,49.78
2022-11-30T06:16:33.504Z,55.10
2022-11-30T06:19:00.372Z,54.88
2022-11-30T06:21:27.123Z,51.95
2022-11-30T06:23:53.754Z,56.20
2022-11-30T06:26:20.576Z,56.47
2022-11-30T06:28:48.694Z,60.00
2022-11-30T06:31:16.467Z,54.58
2022-11-30T06:33:43.541Z,55.20
2022-11-30T06:36:10.536Z,52.15
2022-11-30T06:38:37.484Z,54.58
2022-11-30T06:41:06.239Z,57.08
2022-11-30T06:43:38.143Z,56.53
2022-11-30T06:46:06.357Z,59.08
2022-11-30T06:48:33.895Z,63.22
2022-11-30T06:51:01.213Z,61.00
2022-11-30T06:53:28.004Z,55.00
2022-11-30T06:55:54.716Z,57.20
2022-11-30T06:58:21.628Z,62.05
2022-11-30T07:00:48.523Z,66.10
2022-11-30T07:03:15.554Z,56.35
2022-11-30T07:05:45.018Z,62.55
2022-11-30T07:08:12.709Z,59.63
2022-11-30T07:10:44.067Z,60.90
2022-11-30T07:13:15.763Z,60.75
2022-11-30T07:18:10.927Z,57.88
2022-11-30T07:20:38.598Z,46.75
2022-11-30T07:23:24.340Z,58.08
2022-11-30T07:26:07.386Z,55.35
2022-11-30T07:28:58.228Z,54.47
2022-11-30T07:31:28.275Z,63.07
2022-11-30T07:33:56.241Z,56.90
2022-11-30T07:36:25.464Z,58.47
2022-11-30T07:38:52.429Z,62.80
2022-11-30T07:41:19.162Z,61.42
2022-11-30T07:43:45.869Z,59.88
2022-11-30T07:46:14.340Z,50.78
2022-11-30T07:48:41.577Z,52.00
2022-11-30T07:51:15.917Z,44.95
2022-11-30T07:53:43.107Z,42.10
2022-11-30T07:56:15.239Z,36.75
2022-11-30T07:58:42.455Z,34.08
2022-11-30T08:01:15.276Z,29.17
2022-11-30T08:03:42.441Z,33.53
2022-11-30T08:06:15.219Z,36.90
2022-11-30T08:08:43.811Z,40.03
2022-11-30T08:11:14.758Z,38.83
2022-11-30T08:13:42.253Z,44.92
2022-11-30T08:16:20.638Z,43.33
2022-11-30T08:18:47.646Z,47.95
2022-11-30T08:21:17.308Z,49.50
2022-11-30T08:23:51.904Z,53.42
2022-11-30T08:26:27.791Z,55.05
2022-11-30T08:28:55.023Z,52.67
2022-11-30T08:31:23.113Z,50.33
2022-11-30T08:33:50.315Z,50.63
2022-11-30T08:36:19.758Z,54.67
2022-11-30T08:38:47.672Z,62.00
2022-11-30T08:41:17.288Z,101.38
2022-11-30T08:43:43.926Z,70.45
2022-11-30T08:46:42.707Z,72.10
2022-11-30T08:49:20.550Z,68.90
2022-11-30T08:52:15.853Z,71.55
2022-11-30T08:54:34.608Z,76.47
2022-11-30T08:57:01.246Z,75.90
2022-11-30T08:59:30.427Z,74.85
2022-11-30T09:01:57.294Z,86.00
2022-11-30T09:04:23.960Z,71.28
2022-11-30T09:06:50.709Z,78.90
2022-11-30T09:09:17.320Z,78.95
2022-11-30T09:11:43.992Z,80.35
2022-11-30T09:14:10.922Z,79.55
2022-11-30T09:16:37.612Z,75.70
2022-11-30T09:19:04.279Z,83.43
2022-11-30T09:21:31.101Z,75.88
2022-11-30T09:23:58.257Z,75.78
2022-11-30T09:26:25.497Z,80.43
2022-11-30T09:28:53.864Z,85.13
2022-11-30T09:31:23.356Z,73.68
2022-11-30T09:33:51.066Z,77.82
2022-11-30T09:36:20.964Z,73.68
2022-11-30T09:38:48.516Z,78.97
2022-11-30T09:41:24.441Z,80.68
2022-11-30T09:44:28.815Z,77.82
2022-11-30T09:47:05.071Z,73.97
2022-11-30T09:49:35.663Z,79.97
2022-11-30T09:52:05.956Z,74.65
2022-11-30T09:54:38.785Z,69.50
2022-11-30T09:57:33.064Z,67.25
2022-11-30T10:00:02.333Z,67.38
2022-11-30T10:02:39.737Z,66.43
2022-11-30T10:05:17.112Z,64.82
2022-11-30T10:08:04.261Z,54.97
2022-11-30T10:10:41.563Z,60.33
2022-11-30T10:13:36.572Z,61.72
2022-11-30T10:16:21.902Z,56.83
2022-11-30T10:18:59.547Z,55.42
2022-11-30T10:21:45.437Z,54.33
2022-11-30T10:24:39.321Z,60.70
2022-11-30T10:27:24.494Z,57.10
2022-11-30T10:29:51.179Z,51.15
2022-11-30T10:32:23.638Z,48.70
2022-11-30T10:34:55.258Z,55.78
2022-11-30T10:37:35.383Z,53.75
2022-11-30T10:40:11.192Z,55.78
2022-11-30T10:42:45.645Z,54.53
2022-11-30T10:45:20.122Z,50.00
2022-11-30T10:47:56.728Z,57.47
2022-11-30T10:50:27.945Z,53.45
2022-11-30T10:52:58.212Z,61.53
2022-11-30T10:55:28.528Z,58.17
2022-11-30T10:58:11.742Z,58.60
2022-11-30T11:00:38.612Z,59.20
2022-11-30T11:03:23.517Z,53.17
2022-11-30T11:06:22.891Z,58.50
2022-11-30T11:08:50.019Z,54.88
2022-11-30T11:11:32.424Z,50.25
2022-11-30T11:14:14.786Z,59.85
2022-11-30T11:17:00.920Z,56.28
2022-11-30T11:19:33.318Z,57.45
2022-11-30T11:22:03.590Z,56.03
2022-11-30T11:24:30.677Z,52.35
2022-11-30T11:26:57.866Z,59.10
2022-11-30T11:29:33.799Z,51.97
2022-11-30T11:32:27.434Z,55.00
2022-11-30T11:34:54.195Z,48.25
2022-11-30T11:37:26.479Z,51.50
2022-11-30T11:39:57.079Z,54.63
2022-11-30T11:42:25.777Z,48.30
2022-11-30T11:44:55.260Z,47.88
2022-11-30T11:47:35.477Z,44.05
2022-11-30T11:50:57.713Z,47.88
2022-11-30T11:53:25.066Z,44.95
2022-11-30T11:55:59.808Z,47.40
2022-11-30T11:58:44.038Z,44.25
2022-11-30T12:01:42.824Z,46.22
2022-11-30T12:04:20.720Z,43.50
2022-11-30T12:06:53.258Z,42.67
2022-11-30T12:09:27.215Z,41.67
2022-11-30T12:11:53.889Z,44.60
2022-11-30T12:14:20.645Z,43.42
2022-11-30T12:16:54.188Z,40.17
2022-11-30T12:19:27.740Z,39.47
2022-11-30T12:22:32.833Z,36.35
2022-11-30T12:25:18.786Z,36.75
2022-11-30T12:28:17.565Z,36.92
2022-11-30T12:31:12.574Z,36.55
2022-11-30T12:33:45.054Z,37.60
2022-11-30T12:36:33.311Z,40.53
2022-11-30T12:39:32.682Z,34.88
2022-11-30T12:42:15.258Z,31.92
2022-11-30T12:45:17.517Z,36.58
2022-11-30T12:48:15.062Z,36.88
2022-11-30T12:50:56.527Z,36.42
2022-11-30T12:53:38.961Z,36.60
2022-11-30T12:56:24.533Z,33.40
2022-11-30T12:58:54.054Z,39.22
2022-11-30T13:01:42.718Z,36.08
2022-11-30T13:04:25.311Z,34.58
2022-11-30T13:06:59.978Z,36.05
2022-11-30T13:09:29.599Z,31.83
2022-11-30T13:12:01.941Z,29.75
2022-11-30T13:14:30.732Z,32.10
2022-11-30T13:17:18.523Z,31.02
2022-11-30T13:19:52.797Z,32.28
2022-11-30T13:22:34.457Z,32.30
2022-11-30T13:25:17.252Z,31.83
2022-11-30T13:28:17.860Z,30.25
2022-11-30T13:30:52.280Z,31.52
2022-11-30T13:33:34.693Z,31.77
2022-11-30T13:36:23.183Z,31.10
2022-11-30T13:39:15.019Z,28.00
2022-11-30T13:41:46.470Z,27.70
2022-11-30T13:44:32.445Z,26.35
2022-11-30T13:47:05.046Z,27.50
2022-11-30T13:49:35.635Z,27.58
2022-11-30T13:54:54.476Z,25.95
2022-11-30T13:57:30.233Z,26.73
2022-11-30T14:00:02.064Z,25.35
2022-11-30T14:02:32.177Z,25.75
2022-11-30T14:05:17.402Z,24.15
2022-11-30T14:08:00.310Z,26.05
2022-11-30T14:10:32.879Z,24.13
2022-11-30T14:13:02.558Z,27.23
2022-11-30T14:15:38.362Z,24.55
2022-11-30T14:18:07.785Z,28.25
2022-11-30T14:20:52.313Z,23.00
2022-11-30T14:23:27.392Z,27.00
2022-11-30T14:25:57.124Z,25.15
2022-11-30T14:28:46.418Z,25.17
2022-11-30T14:31:21.741Z,29.60
2022-11-30T14:34:08.771Z,26.20
2022-11-30T14:36:40.351Z,28.40
2022-11-30T14:39:24.889Z,26.92
2022-11-30T14:41:51.993Z,32.25
2022-11-30T14:44:18.814Z,26.70
2022-11-30T14:46:45.685Z,30.48
2022-11-30T14:49:22.199Z,27.85
2022-11-30T14:52:00.671Z,24.42
2022-11-30T14:54:45.991Z,28.05
2022-11-30T14:57:32.058Z,27.13
2022-11-30T14:59:58.889Z,28.08
2022-11-30T15:02:37.297Z,29.48
2022-11-30T15:05:07.139Z,29.80
2022-11-30T15:07:36.264Z,31.25
2022-11-30T15:10:08.950Z,28.65
2022-11-30T15:12:39.072Z,27.55
2022-11-30T15:15:18.403Z,28.20
2022-11-30T15:17:54.651Z,27.63
2022-11-30T15:20:26.064Z,27.30
2022-11-30T15:22:58.229Z,33.83
2022-11-30T15:25:34.113Z,28.95
2022-11-30T15:28:01.502Z,27.90
2022-11-30T15:30:28.697Z,28.92
2022-11-30T15:32:57.274Z,31.67
2022-11-30T15:35:34.306Z,27.80
2022-11-30T15:38:20.663Z,33.15
2022-11-30T15:40:54.449Z,30.63
2022-11-30T15:43:24.565Z,26.33
2022-11-30T15:45:53.790Z,25.67
2022-11-30T15:48:29.775Z,30.63
2022-11-30T15:50:56.620Z,28.48
2022-11-30T15:53:32.565Z,30.60
2022-11-30T15:56:05.703Z,26.95
2022-11-30T15:58:46.600Z,32.47
2022-11-30T16:01:24.490Z,31.70
2022-11-30T16:04:05.637Z,24.88
2022-11-30T16:06:36.502Z,27.10
2022-11-30T16:09:25.726Z,29.50
2022-11-30T16:11:57.802Z,29.60
2022-11-30T16:14:24.722Z,31.80
2022-11-30T16:16:53.669Z,39.58
2022-11-30T16:19:20.556Z,31.30
2022-11-30T16:21:49.118Z,32.85
2022-11-30T16:24:16.716Z,28.08
2022-11-30T16:26:50.889Z,27.67
2022-11-30T16:29:17.960Z,26.13
2022-11-30T16:31:44.680Z,29.35
2022-11-30T16:34:11.984Z,25.63
2022-11-30T16:36:38.987Z,26.20
2022-11-30T16:39:06.432Z,26.60
2022-11-30T16:41:35.533Z,25.50
2022-11-30T16:44:02.257Z,26.50
2022-11-30T16:46:29.750Z,28.30
2022-11-30T16:48:56.681Z,27.40
2022-11-30T16:51:34.388Z,23.52
2022-11-30T16:54:01.239Z,29.02
2022-11-30T16:56:28.131Z,23.20
2022-11-30T16:58:54.899Z,30.30
2022-11-30T17:01:41.635Z,28.98
2022-11-30T17:04:20.328Z,29.10
2022-11-30T17:06:50.521Z,28.27
2022-11-30T17:09:19.167Z,28.83
2022-11-30T17:11:47.285Z,29.45
2022-11-30T17:14:14.519Z,30.08
2022-11-30T17:16:41.805Z,31.70
2022-11-30T17:19:09.408Z,36.47
2022-11-30T17:21:38.293Z,34.13
2022-11-30T17:24:06.305Z,43.67
2022-11-30T17:26:32.981Z,44.65
2022-11-30T17:28:59.705Z,48.03
2022-11-30T17:31:26.737Z,50.03
2022-11-30T17:33:53.459Z,50.88
2022-11-30T17:36:20.143Z,45.13
2022-11-30T17:38:46.876Z,50.45
2022-11-30T17:41:18.834Z,48.17
2022-11-30T17:43:46.769Z,53.58
2022-11-30T17:46:15.858Z,48.28
2022-11-30T17:48:43.644Z,50.35
2022-11-30T17:51:10.927Z,53.00
2022-11-30T17:53:39.058Z,50.33
2022-11-30T17:56:08.128Z,51.17
2022-11-30T17:58:42.971Z,49.55
2022-11-30T18:01:17.376Z,55.03
2022-11-30T18:03:44.947Z,52.88
2022-11-30T18:06:11.973Z,50.38
2022-11-30T18:08:39.982Z,50.78
2022-11-30T18:11:11.245Z,48.85
2022-11-30T18:13:38.962Z,50.30
2022-11-30T18:16:10.259Z,49.05
2022-11-30T18:18:37.157Z,45.83
2022-11-30T18:21:08.057Z,50.15
2022-11-30T18:23:35.580Z,46.73
2022-11-30T18:26:07.661Z,51.22
2022-11-30T18:28:34.368Z,51.00
2022-11-30T18:31:01.151Z,54.08
2022-11-30T18:33:27.799Z,55.47
2022-11-30T18:36:00.812Z,54.05
2022-11-30T18:38:31.543Z,55.60
2022-11-30T18:41:00.896Z,65.03
2022-11-30T18:43:27.616Z,57.30
2022-11-30T18:46:02.305Z,62.60
2022-11-30T18:48:29.024Z,48.97
2022-11-30T18:50:55.675Z,53.13
2022-11-30T18:53:22.389Z,51.88
2022-11-30T18:55:49.050Z,52.95
2022-11-30T18:58:15.675Z,59.15
2022-11-30T19:00:42.394Z,53.20
2022-11-30T19:03:09.078Z,48.35
2022-11-30T19:05:40.363Z,51.05
2022-11-30T19:08:13.933Z,49.40
2022-11-30T19:10:40.591Z,51.50
2022-11-30T19:13:07.683Z,48.85
2022-11-30T19:15:39.130Z,54.05
2022-11-30T19:18:06.280Z,50.22
2022-11-30T19:20:41.036Z,53.65
2022-11-30T19:23:08.249Z,51.95
2022-11-30T19:25:34.932Z,55.63
2022-11-30T19:28:01.726Z,50.80
2022-11-30T19:30:28.472Z,50.13
2022-11-30T19:32:55.218Z,50.55
2022-11-30T19:35:23.017Z,47.42
2022-11-30T19:37:52.079Z,50.95
2022-11-30T19:40:18.945Z,45.97
2022-11-30T19:42:45.775Z,50.13
2022-11-30T19:45:12.409Z,49.75
2022-11-30T19:47:39.139Z,44.78
2022-11-30T19:50:06.310Z,40.42
2022-11-30T19:52:32.949Z,39.72
2022-11-30T19:54:59.752Z,45.08
2022-11-30T19:57:26.405Z,45.65
2022-11-30T19:59:53.057Z,44.00
2022-11-30T20:02:19.841Z,39.25
2022-11-30T20:04:46.953Z,43.17
2022-11-30T20:07:14.743Z,42.60
2022-11-30T20:09:41.455Z,41.88
2022-11-30T20:12:08.071Z,42.83
2022-11-30T20:14:36.733Z,41.47
2022-11-30T20:17:03.741Z,43.95
2022-11-30T20:19:31.560Z,42.20
2022-11-30T20:21:59.163Z,44.38
2022-11-30T20:24:26.081Z,44.35
2022-11-30T20:26:52.712Z,40.15
2022-11-30T20:29:19.366Z,41.20
2022-11-30T20:31:47.621Z,36.67
2022-11-30T20:34:15.065Z,42.70
2022-11-30T20:36:41.968Z,42.45
2022-11-30T20:39:10.711Z,37.35
2022-11-30T20:41:37.518Z,36.35
2022-11-30T20:44:04.380Z,38.47
2022-11-30T20:46:33.574Z,37.45
2022-11-30T20:49:01.333Z,37.88
2022-11-30T20:51:32.181Z,37.97
2022-11-30T20:54:01.658Z,38.45
2022-11-30T20:56:28.646Z,34.85
2022-11-30T20:58:55.538Z,36.55
2022-11-30T21:01:22.677Z,34.97
2022-11-30T21:03:49.709Z,37.30
2022-11-30T21:06:16.559Z,38.58
2022-11-30T21:08:43.352Z,35.13
2022-11-30T21:11:16.280Z,33.97
2022-11-30T21:13:45.109Z,34.97
2022-11-30T21:16:13.324Z,35.83
2022-11-30T21:18:42.071Z,34.65
2022-11-30T21:21:12.736Z,33.60
2022-11-30T21:23:40.140Z,34.17
2022-11-30T21:26:10.410Z,34.40
2022-11-30T21:28:38.390Z,38.45
2022-11-30T21:31:05.915Z,36.55
2022-11-30T21:33:33.021Z,33.60
2022-11-30T21:35:59.681Z,36.35
2022-11-30T21:38:26.370Z,34.65
2022-11-30T21:40:56.917Z,35.15
2022-11-30T21:43:23.757Z,36.95
2022-11-30T21:45:59.261Z,37.67
2022-11-30T21:48:28.718Z,32.83
2022-11-30T21:51:04.377Z,35.88
2022-11-30T21:53:31.607Z,38.50
2022-11-30T21:56:06.127Z,36.58
2022-11-30T21:58:33.839Z,35.42
2022-11-30T22:01:02.150Z,39.47
2022-11-30T22:03:29.347Z,37.05
2022-11-30T22:06:05.286Z,33.08
2022-11-30T22:08:32.717Z,35.75
2022-11-30T22:11:06.221Z,42.65
2022-11-30T22:13:34.275Z,42.75
2022-11-30T22:16:06.760Z,35.25
2022-11-30T22:18:34.315Z,40.65
2022-11-30T22:21:08.901Z,41.00
2022-11-30T22:23:37.778Z,39.78
2022-11-30T22:26:17.066Z,37.92
2022-11-30T22:28:46.853Z,39.50
2022-11-30T22:31:15.386Z,35.35
2022-11-30T22:33:43.601Z,36.30
2022-11-30T22:36:14.452Z,36.97
2022-11-30T22:38:41.456Z,36.03
2022-11-30T22:41:16.919Z,36.63
2022-11-30T22:43:46.129Z,36.20
2022-11-30T22:46:19.028Z,35.38
2022-11-30T22:48:46.333Z,36.65
2022-11-30T22:51:19.370Z,35.35
2022-11-30T22:53:49.744Z,35.00
2022-11-30T22:56:17.672Z,36.83
2022-11-30T22:58:47.043Z,38.20
2022-11-30T23:01:18.235Z,36.25
2022-11-30T23:03:46.512Z,38.75
2022-11-30T23:06:15.361Z,33.78
2022-11-30T23:08:43.168Z,36.90
2022-11-30T23:11:12.294Z,37.50
2022-11-30T23:13:40.517Z,34.63
2022-11-30T23:16:08.557Z,36.08
2022-11-30T23:18:54.451Z,36.13
2022-11-30T23:21:25.812Z,32.15
2022-11-30T23:23:52.880Z,35.88
2022-11-30T23:26:22.268Z,37.17
2022-11-30T23:28:50.719Z,35.50
2022-11-30T23:31:32.538Z,36.88
2022-11-30T23:34:06.046Z,36.63
2022-11-30T23:36:33.749Z,36.97
2022-11-30T23:39:03.927Z,35.65
2022-11-30T23:41:30.931Z,36.47
2022-11-30T23:43:57.623Z,41.92
2022-11-30T23:46:25.260Z,41.53
2022-11-30T23:48:52.291Z,40.65
2022-11-30T23:51:19.225Z,41.97
2022-11-30T23:53:45.874Z,40.33
2022-11-30T23:56:14.149Z,43.35
2022-11-30T23:58:41.281Z,39.45
